createdAt,value
2023-05-25T00:04:22.468Z,48.92
2023-05-25T00:06:58.790Z,49.06
2023-05-25T00:12:42.873Z,50.19
2023-05-25T00:15:14.718Z,50.59
2023-05-25T00:17:54.853Z,51.46
2023-05-25T00:20:41.044Z,51.60
2023-05-25T00:23:09.864Z,51.84
2023-05-25T00:25:43.082Z,51.40
2023-05-25T00:28:14.313Z,51.70
2023-05-25T00:30:53.541Z,51.42
2023-05-25T00:33:28.015Z,50.76
2023-05-25T00:35:57.677Z,50.70
2023-05-25T00:38:39.584Z,50.00
2023-05-25T00:41:24.323Z,49.91
2023-05-25T00:43:54.659Z,49.98
2023-05-25T00:46:27.631Z,50.11
2023-05-25T00:48:56.553Z,50.56
2023-05-25T00:51:25.823Z,53.30
2023-05-25T00:54:06.608Z,53.90
2023-05-25T00:56:39.120Z,54.57
2023-05-25T00:59:11.248Z,54.49
2023-05-25T01:02:21.864Z,54.35
2023-05-25T01:05:21.491Z,54.10
2023-05-25T01:08:02.302Z,52.60
2023-05-25T01:13:29.672Z,52.00
2023-05-25T01:16:16.303Z,52.26
2023-05-25T01:18:44.785Z,53.52
2023-05-25T01:22:02.191Z,53.72
2023-05-25T01:24:45.042Z,54.77
2023-05-25T01:31:05.420Z,56.83
2023-05-25T01:34:07.927Z,56.72
2023-05-25T01:36:37.384Z,56.79
2023-05-25T01:39:16.704Z,57.13
2023-05-25T01:41:45.332Z,57.41
2023-05-25T01:44:17.266Z,56.98
2023-05-25T01:46:49.560Z,57.13
2023-05-25T01:50:00.582Z,55.85
2023-05-25T01:52:36.088Z,55.64
2023-05-25T02:02:47.718Z,55.49
2023-05-25T02:05:16.509Z,55.79
2023-05-25T02:13:19.034Z,55.33
2023-05-25T02:15:48.649Z,55.49
2023-05-25T02:18:18.301Z,55.68
2023-05-25T02:20:52.192Z,55.62
2023-05-25T02:23:25.367Z,55.86
2023-05-25T02:26:03.323Z,55.68
2023-05-25T02:28:33.816Z,56.13
2023-05-25T02:31:20.742Z,56.21
2023-05-25T02:33:59.794Z,56.26
2023-05-25T02:36:46.215Z,56.51
2023-05-25T02:39:15.983Z,56.64
2023-05-25T02:41:50.813Z,56.59
2023-05-25T02:44:20.924Z,55.62
2023-05-25T02:46:50.340Z,55.73
2023-05-25T02:52:11.482Z,55.51
2023-05-25T03:00:51.028Z,55.10
2023-05-25T03:03:43.685Z,55.29
2023-05-25T03:06:16.321Z,55.11
2023-05-25T03:08:49.401Z,54.82
2023-05-25T03:11:34.799Z,54.52
2023-05-25T03:14:06.523Z,54.02
2023-05-25T03:16:53.975Z,53.45
2023-05-25T03:19:42.893Z,53.23
2023-05-25T03:22:22.241Z,52.27
2023-05-25T03:24:50.750Z,51.49
2023-05-25T03:27:22.083Z,51.46
2023-05-25T03:30:23.525Z,51.33
2023-05-25T03:33:00.618Z,51.46
2023-05-25T03:35:36.133Z,51.47
2023-05-25T03:38:24.996Z,51.44
2023-05-25T03:41:05.129Z,51.40
2023-05-25T03:43:39.415Z,51.63
2023-05-25T03:46:13.557Z,51.83
2023-05-25T03:48:49.453Z,52.05
2023-05-25T03:51:21.067Z,52.16
2023-05-25T03:53:56.984Z,52.08
2023-05-25T03:56:26.702Z,52.29
2023-05-25T03:58:58.126Z,52.44
2023-05-25T04:01:33.282Z,53.21
2023-05-25T04:04:11.729Z,53.80
2023-05-25T04:06:42.493Z,54.35
2023-05-25T04:09:11.656Z,54.72
2023-05-25T04:19:22.408Z,55.33
2023-05-25T04:21:59.932Z,55.40
2023-05-25T04:24:35.480Z,55.14
2023-05-25T04:30:45.953Z,54.48
2023-05-25T04:33:41.379Z,54.28
2023-05-25T04:36:19.648Z,54.20
2023-05-25T04:38:55.651Z,53.81
2023-05-25T04:41:30.326Z,53.76
2023-05-25T04:47:12.768Z,53.35
2023-05-25T04:49:44.670Z,53.34
2023-05-25T04:52:14.728Z,53.23
2023-05-25T04:58:24.250Z,53.27
2023-05-25T05:00:56.821Z,53.14
2023-05-25T05:03:31.073Z,53.14
2023-05-25T05:05:59.721Z,53.06
2023-05-25T05:08:35.022Z,52.95
2023-05-25T05:11:10.248Z,52.81
2023-05-25T05:16:37.121Z,52.48
2023-05-25T05:19:06.451Z,52.53
2023-05-25T05:21:35.230Z,52.99
2023-05-25T05:27:40.959Z,53.58
2023-05-25T05:30:23.801Z,53.82
2023-05-25T05:32:53.441Z,54.26
2023-05-25T05:35:24.952Z,54.32
2023-05-25T05:38:03.267Z,54.42
2023-05-25T05:46:13.904Z,57.00
2023-05-25T05:48:55.441Z,56.98
2023-05-25T05:55:48.759Z,55.49
2023-05-25T05:58:19.950Z,54.64
2023-05-25T06:04:05.949Z,54.72
2023-05-25T06:06:35.696Z,54.76
2023-05-25T06:09:19.793Z,54.61
2023-05-25T06:12:17.361Z,53.86
2023-05-25T06:15:00.831Z,53.42
2023-05-25T06:18:02.455Z,53.30
2023-05-25T06:25:10.674Z,53.40
2023-05-25T06:30:37.566Z,52.81
2023-05-25T06:33:15.160Z,52.54
2023-05-25T06:45:20.860Z,51.41
2023-05-25T06:47:50.288Z,51.63
2023-05-25T06:50:21.690Z,51.35
2023-05-25T06:52:52.668Z,51.47
2023-05-25T07:00:30.559Z,50.88
2023-05-25T07:03:34.480Z,51.14
2023-05-25T07:06:20.472Z,51.13
2023-05-25T07:09:41.885Z,51.30
2023-05-25T07:12:29.592Z,51.12
2023-05-25T07:14:58.762Z,51.51
2023-05-25T07:22:38.154Z,52.80
2023-05-25T07:25:07.603Z,52.75
2023-05-25T07:34:55.313Z,51.60
2023-05-25T07:37:24.336Z,51.99
2023-05-25T07:39:54.108Z,51.72
2023-05-25T07:42:23.187Z,51.38
2023-05-25T07:45:11.488Z,51.53
2023-05-25T07:47:42.049Z,51.40
2023-05-25T07:50:18.942Z,51.39
2023-05-25T07:56:20.777Z,51.41
2023-05-25T07:59:07.742Z,51.41
2023-05-25T08:01:39.490Z,51.59
2023-05-25T08:04:37.369Z,51.82
2023-05-25T08:07:11.414Z,51.82
2023-05-25T08:09:53.195Z,51.61
2023-05-25T08:15:28.775Z,51.66
2023-05-25T08:17:57.369Z,51.81
2023-05-25T08:20:40.406Z,51.42
2023-05-25T08:23:11.628Z,51.22
2023-05-25T08:25:45.542Z,51.32
2023-05-25T08:28:14.318Z,51.34
2023-05-25T08:30:49.690Z,51.11
2023-05-25T08:33:18.456Z,51.08
2023-05-25T08:36:22.544Z,51.22
2023-05-25T08:38:52.855Z,51.11
2023-05-25T08:41:51.858Z,51.51
2023-05-25T08:44:25.717Z,51.89
2023-05-25T08:47:23.558Z,52.25
2023-05-25T08:49:52.962Z,52.49
2023-05-25T08:52:28.696Z,52.78
2023-05-25T08:54:58.044Z,52.62
2023-05-25T08:57:54.483Z,52.60
2023-05-25T09:00:43.119Z,52.89
2023-05-25T09:03:27.526Z,52.77
2023-05-25T09:10:57.616Z,53.39
2023-05-25T09:13:36.348Z,53.14
2023-05-25T09:16:26.931Z,52.99
2023-05-25T09:19:06.860Z,52.50
2023-05-25T09:21:40.146Z,52.34
2023-05-25T09:24:09.917Z,52.50
2023-05-25T09:26:46.375Z,52.64
2023-05-25T09:29:26.473Z,52.24
2023-05-25T09:35:23.815Z,51.45
2023-05-25T09:37:56.537Z,51.55
2023-05-25T09:40:51.163Z,51.19
2023-05-25T09:43:40.140Z,50.70
2023-05-25T09:46:12.639Z,49.67
2023-05-25T09:48:50.550Z,49.61
2023-05-25T09:51:34.517Z,48.86
2023-05-25T09:54:31.097Z,49.01
2023-05-25T09:57:17.171Z,48.99
2023-05-25T09:59:46.324Z,48.85
2023-05-25T10:02:16.113Z,48.67
2023-05-25T10:05:26.368Z,48.42
2023-05-25T10:11:48.383Z,47.60
2023-05-25T10:14:27.184Z,47.40
2023-05-25T10:17:11.265Z,47.41
2023-05-25T10:20:29.718Z,47.18
2023-05-25T10:23:18.978Z,47.12
2023-05-25T10:26:22.910Z,47.04
2023-05-25T10:28:56.494Z,46.23
2023-05-25T10:31:28.677Z,45.58
2023-05-25T10:34:02.331Z,45.88
2023-05-25T10:36:31.482Z,45.50
2023-05-25T10:39:00.967Z,45.65
2023-05-25T10:41:29.995Z,45.85
2023-05-25T10:44:22.252Z,45.82
2023-05-25T10:46:54.540Z,45.81
2023-05-25T10:49:33.931Z,45.71
2023-05-25T10:52:04.328Z,45.15
2023-05-25T10:54:39.811Z,45.23
2023-05-25T10:57:24.418Z,45.45
2023-05-25T11:03:21.124Z,46.12
2023-05-25T11:05:54.248Z,45.56
2023-05-25T11:09:51.832Z,45.17
2023-05-25T11:12:30.221Z,44.76
2023-05-25T11:25:47.865Z,42.14
2023-05-25T11:28:21.437Z,41.09
2023-05-25T11:31:02.568Z,41.20
2023-05-25T11:33:33.137Z,41.38
2023-05-25T11:36:04.239Z,41.29
2023-05-25T11:38:53.230Z,41.28
2023-05-25T11:41:36.737Z,40.64
2023-05-25T11:44:34.025Z,40.39
2023-05-25T11:47:35.716Z,40.35
2023-05-25T11:50:38.367Z,39.66
2023-05-25T11:53:21.296Z,39.62
2023-05-25T11:55:53.682Z,38.91
2023-05-25T12:02:07.164Z,38.64
2023-05-25T12:05:11.153Z,38.60
2023-05-25T12:08:07.979Z,37.94
2023-05-25T12:10:54.124Z,37.41
2023-05-25T12:13:34.990Z,37.79
2023-05-25T12:16:56.019Z,38.19
2023-05-25T12:19:34.942Z,38.67
2023-05-25T12:22:07.714Z,38.55
2023-05-25T12:24:37.608Z,38.32
2023-05-25T12:27:25.121Z,38.49
2023-05-25T12:29:55.702Z,38.71
2023-05-25T12:32:27.371Z,38.34
2023-05-25T12:35:08.439Z,38.50
2023-05-25T12:41:30.942Z,38.72
2023-05-25T12:44:00.938Z,38.84
2023-05-25T12:46:34.002Z,38.67
2023-05-25T12:49:06.760Z,38.44
2023-05-25T12:54:53.339Z,37.28
2023-05-25T12:57:49.819Z,36.97
2023-05-25T13:00:45.126Z,36.95
2023-05-25T13:04:54.191Z,36.72
2023-05-25T13:07:48.306Z,36.30
2023-05-25T13:10:25.693Z,36.73
2023-05-25T13:13:25.228Z,36.68
2023-05-25T13:15:54.129Z,35.93
2023-05-25T13:18:31.639Z,36.00
2023-05-25T13:23:48.881Z,36.19
2023-05-25T13:26:35.998Z,35.72
2023-05-25T13:29:10.604Z,35.59
2023-05-25T13:31:43.896Z,35.56
2023-05-25T13:34:23.595Z,35.54
2023-05-25T13:37:07.916Z,35.42
2023-05-25T13:39:55.555Z,35.33
2023-05-25T13:42:30.096Z,35.09
2023-05-25T13:45:04.796Z,35.21
2023-05-25T13:47:33.894Z,35.21
2023-05-25T13:52:51.915Z,35.17
2023-05-25T13:55:24.070Z,35.11
2023-05-25T14:03:39.550Z,35.63
2023-05-25T14:06:18.034Z,35.60
2023-05-25T14:08:59.397Z,35.35
2023-05-25T14:11:30.371Z,34.89
2023-05-25T14:13:59.017Z,35.10
2023-05-25T14:20:27.570Z,35.03
2023-05-25T14:23:38.510Z,35.20
2023-05-25T14:26:16.304Z,35.54
2023-05-25T14:28:45.658Z,35.97
2023-05-25T14:31:18.556Z,36.17
2023-05-25T14:39:51.964Z,35.57
2023-05-25T14:42:26.102Z,35.55
2023-05-25T14:45:39.907Z,37.15
2023-05-25T14:49:25.100Z,37.76
2023-05-25T14:52:11.841Z,37.95
2023-05-25T14:57:48.283Z,38.42
2023-05-25T15:00:43.692Z,38.17
2023-05-25T15:03:43.582Z,38.36
2023-05-25T15:06:43.484Z,37.79
2023-05-25T15:09:41.917Z,38.22
2023-05-25T15:12:19.749Z,38.37
2023-05-25T15:14:49.039Z,38.66
2023-05-25T15:17:25.606Z,38.64
2023-05-25T15:20:13.556Z,38.56
2023-05-25T15:22:42.522Z,38.75
2023-05-25T15:25:27.965Z,38.56
2023-05-25T15:28:15.145Z,38.72
2023-05-25T15:31:33.995Z,38.82
2023-05-25T15:35:02.362Z,38.68
2023-05-25T15:37:42.299Z,38.39
2023-05-25T15:40:12.714Z,38.64
2023-05-25T15:43:07.502Z,38.50
2023-05-25T15:45:36.725Z,38.47
2023-05-25T15:48:13.213Z,38.31
2023-05-25T15:50:51.641Z,38.08
2023-05-25T15:53:23.667Z,38.38
2023-05-25T15:55:56.597Z,38.50
2023-05-25T15:58:34.825Z,38.49
2023-05-25T16:01:06.212Z,38.29
2023-05-25T16:03:36.838Z,38.37
2023-05-25T16:06:16.371Z,38.91
2023-05-25T16:08:48.606Z,39.35
2023-05-25T16:14:06.975Z,40.47
2023-05-25T16:16:36.170Z,40.26
2023-05-25T16:19:13.824Z,40.27
2023-05-25T16:21:49.995Z,40.67
2023-05-25T16:24:33.659Z,40.53
2023-05-25T16:27:14.197Z,40.50
2023-05-25T16:29:59.782Z,40.70
2023-05-25T16:32:47.076Z,40.84
2023-05-25T16:35:16.326Z,41.17
2023-05-25T16:37:47.768Z,41.17
2023-05-25T16:40:17.915Z,41.04
2023-05-25T16:42:47.316Z,40.92
2023-05-25T16:45:20.885Z,40.78
2023-05-25T16:47:59.310Z,41.09
2023-05-25T16:50:31.845Z,40.77
2023-05-25T16:53:12.053Z,40.85
2023-05-25T16:56:00.675Z,40.75
2023-05-25T16:58:31.613Z,41.32
2023-05-25T17:01:00.616Z,40.91
2023-05-25T17:07:46.736Z,40.36
2023-05-25T17:10:26.388Z,40.45
2023-05-25T17:13:29.587Z,41.12
2023-05-25T17:16:08.034Z,40.95
2023-05-25T17:18:48.272Z,41.13
2023-05-25T17:24:38.359Z,41.36
2023-05-25T17:27:09.627Z,41.45
2023-05-25T17:29:47.323Z,41.60
2023-05-25T17:35:16.362Z,41.65
2023-05-25T17:53:02.836Z,42.76
2023-05-25T18:00:05.383Z,42.53
2023-05-25T18:07:56.987Z,43.18
2023-05-25T18:10:56.517Z,43.33
2023-05-25T18:13:54.280Z,43.34
2023-05-25T18:16:26.454Z,43.46
2023-05-25T18:24:21.614Z,43.69
2023-05-25T18:26:51.686Z,43.73
2023-05-25T18:29:33.421Z,43.57
2023-05-25T18:32:11.163Z,43.80
2023-05-25T18:34:48.722Z,44.35
2023-05-25T18:37:19.249Z,44.39
2023-05-25T18:43:34.577Z,44.43
2023-05-25T18:46:25.892Z,44.71
2023-05-25T18:49:00.075Z,44.82
2023-05-25T19:01:43.322Z,45.03
2023-05-25T19:04:47.532Z,44.81
2023-05-25T19:08:57.250Z,45.19
2023-05-25T19:11:35.806Z,45.35
2023-05-25T19:20:05.087Z,45.94
2023-05-25T19:27:23.884Z,47.15
2023-05-25T19:34:43.755Z,46.88
2023-05-25T19:40:51.573Z,46.87
2023-05-25T19:43:22.039Z,47.01
2023-05-25T19:46:04.369Z,47.48
2023-05-25T19:48:43.543Z,47.37
2023-05-25T19:51:45.949Z,47.18
2023-05-25T19:55:22.742Z,47.45
2023-05-25T20:01:10.092Z,47.09
2023-05-25T20:04:12.322Z,47.17
2023-05-25T20:07:18.883Z,47.38
2023-05-25T20:09:53.435Z,47.23
2023-05-25T20:22:57.794Z,47.70
2023-05-25T20:25:28.456Z,47.60
2023-05-25T20:28:25.833Z,47.61
2023-05-25T20:30:57.112Z,47.54
2023-05-25T20:40:17.463Z,47.87
2023-05-25T20:43:09.453Z,48.05
2023-05-25T20:49:36.194Z,48.12
2023-05-25T20:52:30.785Z,48.17
2023-05-25T20:55:24.180Z,48.33
2023-05-25T20:58:10.158Z,48.72
2023-05-25T21:00:54.928Z,48.88
2023-05-25T21:17:44.946Z,50.28
2023-05-25T21:20:21.194Z,50.28
2023-05-25T21:23:02.453Z,50.46
2023-05-25T21:25:32.286Z,50.65
2023-05-25T21:28:02.622Z,50.50
2023-05-25T21:30:49.698Z,50.57
2023-05-25T21:33:23.890Z,50.12
2023-05-25T21:35:52.511Z,50.21
2023-05-25T21:38:26.239Z,50.27
2023-05-25T21:41:00.887Z,50.78
2023-05-25T21:43:29.890Z,50.61
2023-05-25T21:46:00.812Z,50.81
2023-05-25T21:48:39.592Z,50.74
2023-05-25T21:51:19.598Z,50.82
2023-05-25T21:54:20.781Z,51.37
2023-05-25T21:56:49.550Z,51.43
2023-05-25T22:02:18.783Z,51.68
2023-05-25T22:07:32.266Z,52.47
2023-05-25T22:10:12.204Z,52.79
2023-05-25T22:12:40.966Z,52.75
2023-05-25T22:15:21.113Z,52.78
2023-05-25T22:17:55.397Z,52.51
2023-05-25T22:20:26.250Z,52.97
2023-05-25T22:23:12.393Z,53.07
2023-05-25T22:25:50.435Z,53.24
2023-05-25T22:28:19.074Z,53.56
2023-05-25T22:30:52.830Z,53.63
2023-05-25T22:33:29.737Z,53.67
2023-05-25T22:36:03.294Z,53.87
2023-05-25T22:38:32.732Z,53.68
2023-05-25T22:41:02.575Z,53.75
2023-05-25T22:46:45.280Z,53.60
2023-05-25T22:59:04.761Z,53.63
2023-05-25T23:01:33.392Z,53.96
2023-05-25T23:04:34.484Z,53.98
2023-05-25T23:07:03.108Z,53.69
2023-05-25T23:09:59.748Z,53.85
2023-05-25T23:12:32.553Z,54.10
2023-05-25T23:21:34.460Z,54.05
2023-05-25T23:24:09.279Z,54.30
2023-05-25T23:26:52.212Z,53.90
2023-05-25T23:29:24.445Z,54.24
2023-05-25T23:31:52.966Z,54.04
2023-05-25T23:34:26.106Z,54.10
2023-05-25T23:37:00.651Z,54.30
2023-05-25T23:52:15.198Z,55.25
2023-05-25T23:55:09.496Z,55.49
